KHPN/HPN METAR and TAF weather

Enter ICAO airport designator
Station Type Date Time Source
KHPN METAR 2019/05/26 23:56 UTC NOAA

KHPN 262356Z 23005KT 10SM BKN110 20/18 A2986 RMK AO2 SLP109 60002 T02000183 10289 20200 51006


Station Type Date Time Source
KHPN Decoded METAR 2019/05/26 23:56 UTC NOAA

WHITE PLAINS WESTCHESTER, NY, United States (KHPN) 41-04N 073-42W 121M
May 26, 2019 - 07:56 PM EDT / 2019.05.26 2356 UTC
Wind: from the SW (230 degrees) at 6 MPH (5 KT):0
Visibility: 10 mile(s):0
Sky conditions: mostly cloudy
Temperature: 68.0 F (20.0 C)
Dew Point: 64.9 F (18.3 C)
Relative Humidity: 89%
Pressure (altimeter): 29.86 in. Hg (1011 hPa)
Pressure tendency: 0.02 inches (0.6 hPa) higher than three hours ago
ob: KHPN 262356Z 23005KT 10SM BKN110 20/18 A2986 RMK AO2 SLP109 60002 T02000183 10289 20200 51006
cycle: 0

Station Type Date Time Source
KHPN TAF 2019/05/26 21:45 UTC NOAA

TAF
AMD KHPN 262042Z 2621/2718 29008KT P6SM FEW050 SCT250
TEMPO 2622/2623 -TSRA SCT025 BKN040CB
FM262300 30008KT P6SM SCT060 BKN150
FM270200 32005KT P6SM SCT060 BKN150
FM270500 36004KT P6SM SCT060 SCT250
FM271500 34007KT P6SM SCT060 SCT250
AMD NOT SKED

Example: see airport list